createdAt,value
2018-05-29T00:01:04.400Z,2.40
2018-05-29T00:06:09.740Z,2.43
2018-05-29T00:11:18.543Z,2.33
2018-05-29T00:16:24.026Z,2.50
2018-05-29T00:21:29.415Z,2.40
2018-05-29T00:26:34.812Z,2.00
2018-05-29T00:31:40.207Z,2.40
2018-05-29T00:36:52.264Z,2.30
2018-05-29T00:41:57.508Z,2.20
2018-05-29T00:47:03.902Z,2.70
2018-05-29T00:52:09.339Z,2.30
2018-05-29T00:57:15.671Z,2.50
2018-05-29T01:02:21.006Z,1.80
2018-05-29T01:07:29.625Z,1.90
2018-05-29T01:12:35.012Z,2.20
2018-05-29T01:17:40.461Z,2.20
2018-05-29T01:22:45.947Z,2.20
2018-05-29T01:27:51.506Z,2.53
2018-05-29T01:32:56.904Z,2.80
2018-05-29T01:38:09.975Z,2.60
2018-05-29T01:43:15.325Z,2.40
2018-05-29T01:48:20.810Z,2.67
2018-05-29T01:53:26.225Z,2.10
2018-05-29T01:58:32.691Z,2.60
2018-05-29T02:03:37.976Z,2.20
2018-05-29T02:08:44.309Z,2.63
2018-05-29T02:13:49.482Z,2.70
2018-05-29T02:18:55.921Z,2.17
2018-05-29T02:24:01.407Z,2.13
2018-05-29T02:29:13.397Z,2.60
2018-05-29T02:34:18.857Z,2.47
2018-05-29T02:39:24.953Z,2.57
2018-05-29T02:44:30.103Z,2.20
2018-05-29T02:49:38.614Z,2.30
2018-05-29T02:54:44.051Z,2.40
2018-05-29T02:59:54.211Z,2.67
2018-05-29T03:04:59.533Z,2.40
2018-05-29T03:10:08.883Z,2.70
2018-05-29T03:15:14.172Z,2.90
2018-05-29T03:20:20.478Z,2.63
2018-05-29T03:25:25.917Z,2.57
2018-05-29T03:30:31.370Z,2.83
2018-05-29T03:35:36.827Z,2.80
2018-05-29T03:40:42.184Z,2.63
2018-05-29T03:45:47.577Z,2.90
2018-05-29T03:50:55.954Z,3.03
2018-05-29T03:56:01.290Z,2.87
2018-05-29T04:01:06.633Z,3.00
2018-05-29T04:06:15.808Z,2.60
2018-05-29T04:11:21.160Z,2.70
2018-05-29T04:16:32.657Z,3.13
2018-05-29T04:21:38.154Z,3.87
2018-05-29T04:26:47.260Z,2.70
2018-05-29T04:31:52.819Z,3.57
2018-05-29T04:37:01.773Z,2.83
2018-05-29T04:42:07.294Z,2.70
2018-05-29T04:47:16.517Z,3.50
2018-05-29T04:52:21.717Z,3.23
2018-05-29T04:57:31.017Z,4.33
2018-05-29T05:02:36.470Z,3.77
2018-05-29T05:07:45.658Z,3.83
2018-05-29T05:12:51.056Z,3.90
2018-05-29T05:17:59.459Z,4.00
2018-05-29T05:23:04.585Z,3.40
2018-05-29T05:28:14.217Z,3.50
2018-05-29T05:33:19.714Z,3.53
2018-05-29T05:38:28.311Z,3.30
2018-05-29T05:43:33.906Z,4.20
2018-05-29T05:48:39.489Z,4.03
2018-05-29T05:53:44.982Z,3.00
2018-05-29T05:58:53.425Z,2.70
2018-05-29T06:03:58.855Z,3.70
2018-05-29T06:09:03.441Z,3.20
2018-05-29T06:14:08.798Z,2.63
2018-05-29T06:19:16.204Z,2.77
2018-05-29T06:24:21.569Z,3.30
2018-05-29T06:29:28.171Z,2.90
2018-05-29T06:34:33.670Z,3.37
2018-05-29T06:39:42.112Z,3.27
2018-05-29T06:44:47.426Z,3.20
2018-05-29T06:49:53.148Z,3.37
2018-05-29T06:54:58.417Z,3.00
2018-05-29T07:00:03.557Z,4.23
2018-05-29T07:05:09.754Z,4.60
2018-05-29T07:10:15.188Z,3.20
2018-05-29T07:15:20.495Z,2.90
2018-05-29T07:20:32.577Z,2.90
2018-05-29T07:25:41.993Z,3.90
2018-05-29T07:30:47.501Z,3.97
2018-05-29T07:35:54.451Z,3.80
2018-05-29T07:40:59.958Z,3.90
2018-05-29T07:46:05.431Z,3.53
2018-05-29T07:51:10.812Z,4.13
2018-05-29T07:56:19.875Z,3.10
2018-05-29T08:01:25.490Z,3.30
2018-05-29T08:06:35.065Z,2.60
2018-05-29T08:11:41.239Z,3.03
2018-05-29T08:16:46.670Z,3.23
2018-05-29T08:21:52.448Z,3.83
2018-05-29T08:26:57.994Z,3.83
2018-05-29T08:32:03.457Z,3.07
2018-05-29T08:37:12.213Z,3.30
2018-05-29T08:42:17.768Z,3.23
2018-05-29T08:47:24.025Z,2.57
2018-05-29T08:52:29.456Z,2.10
2018-05-29T08:57:41.284Z,2.20
2018-05-29T09:02:46.873Z,3.90
2018-05-29T09:07:52.472Z,2.93
2018-05-29T09:12:57.806Z,2.30
2018-05-29T09:18:03.381Z,3.20
2018-05-29T09:23:08.662Z,4.10
2018-05-29T09:28:14.166Z,3.23
2018-05-29T09:33:19.932Z,3.40
2018-05-29T09:38:25.793Z,2.70
2018-05-29T09:43:31.035Z,3.10
2018-05-29T09:48:36.634Z,4.17
2018-05-29T09:53:44.465Z,4.13
2018-05-29T09:58:51.339Z,5.30
2018-05-29T10:03:56.961Z,3.10
2018-05-29T10:09:06.026Z,3.47
2018-05-29T10:14:11.512Z,4.03
2018-05-29T10:19:20.145Z,3.80
2018-05-29T10:24:26.742Z,4.10
2018-05-29T10:29:33.279Z,3.80
2018-05-29T10:34:39.320Z,3.53
2018-05-29T10:39:45.741Z,3.33
2018-05-29T10:44:50.857Z,3.83
2018-05-29T10:49:56.192Z,3.67
2018-05-29T10:55:04.865Z,3.77
2018-05-29T11:00:10.863Z,4.13
2018-05-29T11:05:16.315Z,3.63
2018-05-29T11:10:21.941Z,4.80
2018-05-29T11:15:27.306Z,3.50
2018-05-29T11:20:32.741Z,4.83
2018-05-29T11:25:41.394Z,4.13
2018-05-29T11:30:46.945Z,4.33
2018-05-29T11:35:52.274Z,4.20
2018-05-29T11:40:57.663Z,4.00
2018-05-29T11:46:03.216Z,3.93
2018-05-29T11:51:08.591Z,4.00
2018-05-29T11:56:14.028Z,4.30
2018-05-29T12:01:19.677Z,4.33
2018-05-29T12:06:26.520Z,3.70
2018-05-29T12:11:31.788Z,3.83
2018-05-29T12:16:38.328Z,4.03
2018-05-29T12:21:43.850Z,4.10
2018-05-29T12:26:49.377Z,3.87
2018-05-29T12:31:55.027Z,4.97
2018-05-29T12:37:00.713Z,3.77
2018-05-29T12:42:06.031Z,3.47
2018-05-29T12:47:11.496Z,4.33
2018-05-29T12:52:16.952Z,3.80
2018-05-29T12:57:26.165Z,3.60
2018-05-29T13:02:31.457Z,3.57
2018-05-29T13:07:37.034Z,3.53
2018-05-29T13:12:42.387Z,4.00
2018-05-29T13:17:47.815Z,4.47
2018-05-29T13:22:53.877Z,3.57
2018-05-29T13:27:59.524Z,4.07
2018-05-29T13:33:04.772Z,3.20
2018-05-29T13:38:11.116Z,2.37
2018-05-29T13:43:16.375Z,3.33
2018-05-29T13:48:27.070Z,2.20
2018-05-29T13:53:32.011Z,2.60
2018-05-29T13:58:37.482Z,2.37
2018-05-29T14:03:42.901Z,2.70
2018-05-29T14:08:48.192Z,3.47
2018-05-29T14:13:53.588Z,2.60
2018-05-29T14:18:58.973Z,4.00
2018-05-29T14:24:04.344Z,3.30
2018-05-29T14:29:12.904Z,3.10
2018-05-29T14:34:18.374Z,4.67
2018-05-29T14:39:23.848Z,3.77
2018-05-29T14:44:30.301Z,3.53
2018-05-29T14:49:35.708Z,3.70
2018-05-29T14:54:41.170Z,4.43
2018-05-29T14:59:47.577Z,4.33
2018-05-29T15:04:55.991Z,4.10
2018-05-29T15:10:01.392Z,4.30
2018-05-29T15:15:07.751Z,4.07
2018-05-29T15:20:13.188Z,3.93
2018-05-29T15:25:22.637Z,3.07
2018-05-29T15:30:27.995Z,3.77
2018-05-29T15:35:37.165Z,3.50
2018-05-29T15:40:42.705Z,2.93
2018-05-29T15:45:53.342Z,2.80
2018-05-29T15:50:58.701Z,3.10
2018-05-29T15:56:07.505Z,2.63
2018-05-29T16:01:12.937Z,4.10
2018-05-29T16:06:19.326Z,6.03
2018-05-29T16:11:24.816Z,3.97
2018-05-29T16:16:31.272Z,3.53
2018-05-29T16:21:36.726Z,3.30
2018-05-29T16:26:45.866Z,3.90
2018-05-29T16:31:51.388Z,2.63
2018-05-29T16:36:57.746Z,2.50
2018-05-29T16:42:03.283Z,2.50
2018-05-29T16:47:08.765Z,3.00
2018-05-29T16:52:14.191Z,2.90
2018-05-29T16:57:19.515Z,2.47
2018-05-29T17:02:24.939Z,2.73
2018-05-29T17:07:30.257Z,2.50
2018-05-29T17:12:35.564Z,2.90
2018-05-29T17:17:41.771Z,2.67
2018-05-29T17:22:47.100Z,2.77
2018-05-29T17:27:52.684Z,2.67
2018-05-29T17:32:58.146Z,2.83
2018-05-29T17:38:07.739Z,4.47
2018-05-29T17:43:13.118Z,4.70
2018-05-29T17:48:18.623Z,4.07
2018-05-29T17:53:24.004Z,3.53
2018-05-29T17:58:29.565Z,3.00
2018-05-29T18:03:34.935Z,3.00
2018-05-29T18:08:40.501Z,3.03
2018-05-29T18:13:46.192Z,3.00
2018-05-29T18:18:51.480Z,2.80
2018-05-29T18:23:57.747Z,3.60
2018-05-29T18:29:03.122Z,4.50
2018-05-29T18:34:08.630Z,5.30
2018-05-29T18:39:15.391Z,3.70
2018-05-29T18:44:21.741Z,5.10
2018-05-29T18:49:27.283Z,5.23
2018-05-29T18:54:32.877Z,4.47
2018-05-29T18:59:38.238Z,5.30
2018-05-29T19:04:49.135Z,4.73
2018-05-29T19:09:54.475Z,3.93
2018-05-29T19:15:00.421Z,4.00
2018-05-29T19:20:05.788Z,4.47
2018-05-29T19:25:14.577Z,3.73
2018-05-29T19:30:19.838Z,4.00
2018-05-29T19:35:26.352Z,5.67
2018-05-29T19:40:32.002Z,4.83
2018-05-29T19:45:40.812Z,4.03
2018-05-29T19:50:46.273Z,3.67
2018-05-29T19:55:52.570Z,3.60
2018-05-29T20:00:57.853Z,3.60
2018-05-29T20:06:06.412Z,3.47
2018-05-29T20:11:11.614Z,3.23
2018-05-29T20:16:17.102Z,3.20
2018-05-29T20:21:23.710Z,3.50
2018-05-29T20:26:31.010Z,3.23
2018-05-29T20:31:37.925Z,3.03
2018-05-29T20:36:43.482Z,2.80
2018-05-29T20:41:48.987Z,3.23
2018-05-29T20:46:54.641Z,2.97
2018-05-29T20:52:00.082Z,2.97
2018-05-29T20:57:05.482Z,2.90
2018-05-29T21:02:10.804Z,2.70
2018-05-29T21:07:19.557Z,3.07
2018-05-29T21:12:25.000Z,3.20
2018-05-29T21:17:30.991Z,3.20
2018-05-29T21:22:36.108Z,3.77
2018-05-29T21:27:42.537Z,3.17
2018-05-29T21:32:47.971Z,3.10
2018-05-29T21:37:58.802Z,3.40
2018-05-29T21:43:04.100Z,3.63
2018-05-29T21:48:09.651Z,3.50
2018-05-29T21:53:15.006Z,3.93
2018-05-29T21:58:20.505Z,4.30
2018-05-29T22:03:25.835Z,3.67
2018-05-29T22:08:31.245Z,3.77
2018-05-29T22:13:37.495Z,4.00
2018-05-29T22:18:42.697Z,3.60
2018-05-29T22:23:49.030Z,2.80
2018-05-29T22:28:54.219Z,3.67
2018-05-29T22:33:59.766Z,3.50
2018-05-29T22:39:04.357Z,3.60
2018-05-29T22:44:09.856Z,3.20
2018-05-29T22:49:15.287Z,3.50
2018-05-29T22:54:24.259Z,4.30
2018-05-29T22:59:29.547Z,5.23
2018-05-29T23:04:38.138Z,4.80
2018-05-29T23:09:43.584Z,4.47
2018-05-29T23:14:49.195Z,3.53
2018-05-29T23:19:54.515Z,3.20
2018-05-29T23:25:09.650Z,3.63
2018-05-29T23:30:14.758Z,3.87
2018-05-29T23:35:25.754Z,3.83
2018-05-29T23:40:30.897Z,3.63
2018-05-29T23:45:39.725Z,3.30
2018-05-29T23:50:45.006Z,3.33
2018-05-29T23:55:51.355Z,3.60
